Terminal Aerodrome Forecast
Issued by NWS

Home | Current Version | Previous Version | Graphics & Text | Print | Product List | Glossary On
Versions: 1 2 3 4 5 6 7 8 9 10 11 12 13 14 15 16 17 18 19 20 21 22
000
FTUS42 KMHX 180500
TAFPGV
TAF
KPGV 180538Z 1806/1906 20002KT P6SM SCT100 BKN200
      TEMPO 1808/1812 5SM BR
     FM181200 22005KT P6SM SCT040 BKN150
     FM181700 20006KT P6SM VCTS SCT025 BKN050CB
     FM190200 20004KT P6SM VCSH SCT050 BKN100
      AMD LTD TO CLD VIS AND WIND=

USA.gov is the U.S. government's official web portal to all federal, state and local government web resources and services.